HECA/CAI METAR and TAF weather

Enter ICAO airport designator
Station Type Date Time Source
HECA METAR 2019/11/18 09:00 UTC NOAA

HECA 180900Z 03007KT 6000 NSC 25/10 Q1015 NOSIG


Station Type Date Time Source
HECA Decoded METAR 2019/11/18 09:00 UTC NOAA

Cairo Airport, Egypt (HECA) 30-08N 031-24E 74M
Nov 18, 2019 - 04:00 AM EST / 2019.11.18 0900 UTC
Wind: from the NNE (030 degrees) at 8 MPH (7 KT):0
Visibility: 3 mile(s):0
Temperature: 77 F (25 C)
Dew Point: 50 F (10 C)
Relative Humidity: 38%
Pressure (altimeter): 29.97 in. Hg (1015 hPa)
ob: HECA 180900Z 03007KT 6000 NSC 25/10 Q1015 NOSIG
cycle: 9

Station Type Date Time Source
HECA TAF 2019/11/18 06:50 UTC NOAA

TAF HECA 180500Z 1806/1912 05008KT CAVOK
TEMPO 1806/1810 VRB03KT 4000 HZ NSC

Example: see airport list